<?xml version="1.0" encoding="UTF-8" standalone="no" ?>
<gpx xmlns="http://www.topografix.com/GPX/1/1" xmlns:xsi="http://www.w3.org/2001/XMLSchema-instance" xsi:schemaLocation="http://www.topografix.com/GPX/1/1 http://www.topografix.com/GPX/1/1/gpx.xsd" version="1.1" creator="VisuGPX - https://www.visugpx.com">
  <metadata>
    <name>Edirne-Zagreb</name>
  </metadata>
  <trk>
    <name><![CDATA[Tour d'Europe: étape 619]]></name>
    <extensions>
      <line xmlns="http://www.topografix.com/GPX/gpx_style/0/2">
        <color>00FF00</color>
        <width>4</width>
      </line>
    </extensions>
    <trkseg>
      <trkpt lat="42.71906" lon="23.72811">
        <ele>668.488593</ele>
        <time>2022-03-09T09:04:17.631Z</time>
      </trkpt>
      <trkpt lat="42.71824" lon="23.72696">
        <ele>666.710888</ele>
        <time>2022-03-09T09:09:42.394Z</time>
      </trkpt>
      <trkpt lat="42.71678" lon="23.72488">
        <ele>660.026107</ele>
        <time>2022-03-09T09:11:16.397Z</time>
      </trkpt>
      <trkpt lat="42.71753" lon="23.72219">
        <ele>661.456892</ele>
        <time>2022-03-09T09:12:23.414Z</time>
      </trkpt>
      <trkpt lat="42.71825" lon="23.71954">
        <ele>651.141397</ele>
        <time>2022-03-09T09:13:19.411Z</time>
      </trkpt>
      <trkpt lat="42.71805" lon="23.71835">
        <ele>644.634783</ele>
        <time>2022-03-09T09:15:01.392Z</time>
      </trkpt>
      <trkpt lat="42.71595" lon="23.7194">
        <ele>637.871974</ele>
        <time>2022-03-09T09:15:41.404Z</time>
      </trkpt>
      <trkpt lat="42.71391" lon="23.72003">
        <ele>637.40816</ele>
        <time>2022-03-09T09:16:31.393Z</time>
      </trkpt>
      <trkpt lat="42.71173" lon="23.72096">
        <ele>639.305686</ele>
        <time>2022-03-09T09:17:24.410Z</time>
      </trkpt>
      <trkpt lat="42.71033" lon="23.72017">
        <ele>644.264031</ele>
        <time>2022-03-09T09:18:38.430Z</time>
      </trkpt>
      <trkpt lat="42.70958" lon="23.71752">
        <ele>657.518182</ele>
        <time>2022-03-09T09:20:34.397Z</time>
      </trkpt>
      <trkpt lat="42.70892" lon="23.715">
        <ele>662.249108</ele>
        <time>2022-03-09T09:22:26.389Z</time>
      </trkpt>
      <trkpt lat="42.7083" lon="23.71241">
        <ele>669.087391</ele>
        <time>2022-03-09T09:24:13.406Z</time>
      </trkpt>
      <trkpt lat="42.70771" lon="23.7096">
        <ele>675.759106</ele>
        <time>2022-03-09T09:25:38.409Z</time>
      </trkpt>
      <trkpt lat="42.70708" lon="23.70636">
        <ele>668.620475</ele>
        <time>2022-03-09T09:26:20.398Z</time>
      </trkpt>
      <trkpt lat="42.70629" lon="23.70265">
        <ele>653.091917</ele>
        <time>2022-03-09T09:26:52.400Z</time>
      </trkpt>
      <trkpt lat="42.70568" lon="23.69963">
        <ele>634.687572</ele>
        <time>2022-03-09T09:27:16.418Z</time>
      </trkpt>
      <trkpt lat="42.70502" lon="23.69658">
        <ele>621.110603</ele>
        <time>2022-03-09T09:27:41.422Z</time>
      </trkpt>
      <trkpt lat="42.7044" lon="23.69369">
        <ele>622.081319</ele>
        <time>2022-03-09T09:28:39.416Z</time>
      </trkpt>
      <trkpt lat="42.70388" lon="23.69102">
        <ele>625.76391</ele>
        <time>2022-03-09T09:29:40.413Z</time>
      </trkpt>
      <trkpt lat="42.70325" lon="23.68799">
        <ele>625.704903</ele>
        <time>2022-03-09T09:30:38.434Z</time>
      </trkpt>
      <trkpt lat="42.70256" lon="23.6847">
        <ele>625.081056</ele>
        <time>2022-03-09T09:31:36.396Z</time>
      </trkpt>
      <trkpt lat="42.70194" lon="23.68176">
        <ele>623.541004</ele>
        <time>2022-03-09T09:32:26.412Z</time>
      </trkpt>
      <trkpt lat="42.70127" lon="23.67861">
        <ele>623.360151</ele>
        <time>2022-03-09T09:33:21.409Z</time>
      </trkpt>
      <trkpt lat="42.70014" lon="23.67573">
        <ele>627.622946</ele>
        <time>2022-03-09T09:34:16.415Z</time>
      </trkpt>
      <trkpt lat="42.69807" lon="23.6746">
        <ele>622.753479</ele>
        <time>2022-03-09T09:35:02.394Z</time>
      </trkpt>
      <trkpt lat="42.69588" lon="23.674">
        <ele>614.178583</ele>
        <time>2022-03-09T09:35:44.442Z</time>
      </trkpt>
      <trkpt lat="42.69355" lon="23.67335">
        <ele>609.73398</ele>
        <time>2022-03-09T09:36:24.420Z</time>
      </trkpt>
      <trkpt lat="42.69111" lon="23.67267">
        <ele>604.689546</ele>
        <time>2022-03-09T09:37:04.409Z</time>
      </trkpt>
      <trkpt lat="42.68901" lon="23.67212">
        <ele>601.794738</ele>
        <time>2022-03-09T09:37:49.387Z</time>
      </trkpt>
      <trkpt lat="42.68696" lon="23.67154">
        <ele>601.034379</ele>
        <time>2022-03-09T09:38:34.395Z</time>
      </trkpt>
      <trkpt lat="42.68493" lon="23.67099">
        <ele>601.14273</ele>
        <time>2022-03-09T09:39:18.407Z</time>
      </trkpt>
      <trkpt lat="42.68299" lon="23.67051">
        <ele>600.466319</ele>
        <time>2022-03-09T09:39:59.410Z</time>
      </trkpt>
      <trkpt lat="42.68092" lon="23.67102">
        <ele>607.626661</ele>
        <time>2022-03-09T09:40:46.412Z</time>
      </trkpt>
      <trkpt lat="42.6787" lon="23.67178">
        <ele>605.727678</ele>
        <time>2022-03-09T09:41:35.452Z</time>
      </trkpt>
      <trkpt lat="42.67701" lon="23.67134">
        <ele>606.897398</ele>
        <time>2022-03-09T09:42:48.395Z</time>
      </trkpt>
      <trkpt lat="42.6766" lon="23.66852">
        <ele>605.740499</ele>
        <time>2022-03-09T09:43:51.396Z</time>
      </trkpt>
      <trkpt lat="42.67567" lon="23.66593">
        <ele>600.859925</ele>
        <time>2022-03-09T09:44:42.419Z</time>
      </trkpt>
      <trkpt lat="42.67469" lon="23.6631">
        <ele>595.285723</ele>
        <time>2022-03-09T09:45:40.411Z</time>
      </trkpt>
      <trkpt lat="42.67363" lon="23.66001">
        <ele>592.662727</ele>
        <time>2022-03-09T09:46:43.399Z</time>
      </trkpt>
      <trkpt lat="42.67298" lon="23.65711">
        <ele>596.265955</ele>
        <time>2022-03-09T09:47:43.388Z</time>
      </trkpt>
      <trkpt lat="42.67158" lon="23.6548">
        <ele>599.937989</ele>
        <time>2022-03-09T09:48:43.418Z</time>
      </trkpt>
      <trkpt lat="42.67024" lon="23.65232">
        <ele>602.55193</ele>
        <time>2022-03-09T09:49:34.397Z</time>
      </trkpt>
      <trkpt lat="42.66884" lon="23.64989">
        <ele>600.334165</ele>
        <time>2022-03-09T09:50:28.400Z</time>
      </trkpt>
      <trkpt lat="42.66715" lon="23.64768">
        <ele>596.147803</ele>
        <time>2022-03-09T09:51:27.395Z</time>
      </trkpt>
      <trkpt lat="42.6672" lon="23.64456">
        <ele>591.84058</ele>
        <time>2022-03-09T09:52:27.397Z</time>
      </trkpt>
      <trkpt lat="42.66726" lon="23.64158">
        <ele>590.294883</ele>
        <time>2022-03-09T09:53:27.393Z</time>
      </trkpt>
      <trkpt lat="42.66729" lon="23.63843">
        <ele>589.315372</ele>
        <time>2022-03-09T09:54:30.432Z</time>
      </trkpt>
      <trkpt lat="42.66732" lon="23.63547">
        <ele>588.158213</ele>
        <time>2022-03-09T09:55:30.428Z</time>
      </trkpt>
      <trkpt lat="42.66736" lon="23.63255">
        <ele>588.904206</ele>
        <time>2022-03-09T09:56:30.401Z</time>
      </trkpt>
      <trkpt lat="42.6674" lon="23.62954">
        <ele>590.461634</ele>
        <time>2022-03-09T09:57:33.412Z</time>
      </trkpt>
      <trkpt lat="42.66743" lon="23.62661">
        <ele>590.323512</ele>
        <time>2022-03-09T09:58:33.392Z</time>
      </trkpt>
      <trkpt lat="42.66747" lon="23.62335">
        <ele>587.862345</ele>
        <time>2022-03-09T09:59:36.419Z</time>
      </trkpt>
      <trkpt lat="42.6675" lon="23.62053">
        <ele>590.479834</ele>
        <time>2022-03-09T10:00:36.417Z</time>
      </trkpt>
      <trkpt lat="42.66754" lon="23.61754">
        <ele>592.672859</ele>
        <time>2022-03-09T10:01:36.405Z</time>
      </trkpt>
      <trkpt lat="42.66759" lon="23.61424">
        <ele>591.603099</ele>
        <time>2022-03-09T10:02:39.399Z</time>
      </trkpt>
      <trkpt lat="42.66761" lon="23.61115">
        <ele>593.357773</ele>
        <time>2022-03-09T10:03:39.406Z</time>
      </trkpt>
      <trkpt lat="42.66762" lon="23.60808">
        <ele>599.919928</ele>
        <time>2022-03-09T10:04:38.411Z</time>
      </trkpt>
      <trkpt lat="42.66771" lon="23.60489">
        <ele>604.087026</ele>
        <time>2022-03-09T10:05:42.399Z</time>
      </trkpt>
      <trkpt lat="42.6696" lon="23.60407">
        <ele>605.886832</ele>
        <time>2022-03-09T10:06:47.395Z</time>
      </trkpt>
      <trkpt lat="42.6702" lon="23.60123">
        <ele>595.40325</ele>
        <time>2022-03-09T10:07:52.440Z</time>
      </trkpt>
      <trkpt lat="42.67122" lon="23.5987">
        <ele>603.606268</ele>
        <time>2022-03-09T10:08:55.399Z</time>
      </trkpt>
      <trkpt lat="42.67226" lon="23.59598">
        <ele>600.731016</ele>
        <time>2022-03-09T10:09:55.416Z</time>
      </trkpt>
      <trkpt lat="42.67339" lon="23.59312">
        <ele>595.841687</ele>
        <time>2022-03-09T10:10:57.414Z</time>
      </trkpt>
      <trkpt lat="42.6745" lon="23.59036">
        <ele>588.657566</ele>
        <time>2022-03-09T10:11:57.420Z</time>
      </trkpt>
      <trkpt lat="42.67559" lon="23.5875">
        <ele>588.06348</ele>
        <time>2022-03-09T10:13:00.454Z</time>
      </trkpt>
      <trkpt lat="42.67673" lon="23.58464">
        <ele>583.910117</ele>
        <time>2022-03-09T10:13:57.429Z</time>
      </trkpt>
      <trkpt lat="42.67787" lon="23.58178">
        <ele>585.452905</ele>
        <time>2022-03-09T10:14:53.444Z</time>
      </trkpt>
      <trkpt lat="42.67911" lon="23.57867">
        <ele>586.872665</ele>
        <time>2022-03-09T10:15:55.381Z</time>
      </trkpt>
      <trkpt lat="42.68025" lon="23.57574">
        <ele>586.637946</ele>
        <time>2022-03-09T10:16:51.383Z</time>
      </trkpt>
      <trkpt lat="42.68127" lon="23.57308">
        <ele>590.30589</ele>
        <time>2022-03-09T10:17:42.380Z</time>
      </trkpt>
      <trkpt lat="42.68249" lon="23.57023">
        <ele>589.124291</ele>
        <time>2022-03-09T10:18:39.402Z</time>
      </trkpt>
      <trkpt lat="42.68113" lon="23.56807">
        <ele>586.430999</ele>
        <time>2022-03-09T10:19:36.380Z</time>
      </trkpt>
      <trkpt lat="42.67988" lon="23.56568">
        <ele>583.602141</ele>
        <time>2022-03-09T10:20:23.383Z</time>
      </trkpt>
      <trkpt lat="42.67783" lon="23.56559">
        <ele>582.709036</ele>
        <time>2022-03-09T10:21:07.389Z</time>
      </trkpt>
      <trkpt lat="42.67612" lon="23.56397">
        <ele>580.871328</ele>
        <time>2022-03-09T10:21:53.412Z</time>
      </trkpt>
      <trkpt lat="42.67484" lon="23.5611">
        <ele>577.755689</ele>
        <time>2022-03-09T10:22:56.405Z</time>
      </trkpt>
      <trkpt lat="42.67402" lon="23.55837">
        <ele>578.30151</ele>
        <time>2022-03-09T10:23:56.437Z</time>
      </trkpt>
      <trkpt lat="42.67375" lon="23.55553">
        <ele>577.468897</ele>
        <time>2022-03-09T10:24:56.406Z</time>
      </trkpt>
      <trkpt lat="42.67336" lon="23.55269">
        <ele>572.583217</ele>
        <time>2022-03-09T10:25:59.446Z</time>
      </trkpt>
      <trkpt lat="42.6729" lon="23.54997">
        <ele>571.648585</ele>
        <time>2022-03-09T10:27:04.451Z</time>
      </trkpt>
      <trkpt lat="42.67242" lon="23.54729">
        <ele>570.529429</ele>
        <time>2022-03-09T10:28:07.448Z</time>
      </trkpt>
      <trkpt lat="42.67194" lon="23.54463">
        <ele>569.926032</ele>
        <time>2022-03-09T10:29:07.415Z</time>
      </trkpt>
      <trkpt lat="42.67148" lon="23.54201">
        <ele>570.153433</ele>
        <time>2022-03-09T10:30:08.416Z</time>
      </trkpt>
      <trkpt lat="42.67102" lon="23.5393">
        <ele>569.915481</ele>
        <time>2022-03-09T10:31:12.420Z</time>
      </trkpt>
      <trkpt lat="42.67052" lon="23.53651">
        <ele>571.894885</ele>
        <time>2022-03-09T10:32:12.395Z</time>
      </trkpt>
      <trkpt lat="42.67002" lon="23.5335">
        <ele>573.298788</ele>
        <time>2022-03-09T10:33:31.418Z</time>
      </trkpt>
      <trkpt lat="42.67027" lon="23.53071">
        <ele>575.118558</ele>
        <time>2022-03-09T10:34:26.412Z</time>
      </trkpt>
      <trkpt lat="42.67065" lon="23.52791">
        <ele>579.965375</ele>
        <time>2022-03-09T10:35:28.420Z</time>
      </trkpt>
      <trkpt lat="42.67156" lon="23.52521">
        <ele>578.997648</ele>
        <time>2022-03-09T10:36:33.423Z</time>
      </trkpt>
      <trkpt lat="42.67048" lon="23.5245">
        <ele>582.167627</ele>
        <time>2022-03-09T10:38:03.408Z</time>
      </trkpt>
      <trkpt lat="42.67213" lon="23.5241">
        <ele>578.86072</ele>
        <time>2022-03-09T10:39:05.407Z</time>
      </trkpt>
      <trkpt lat="42.6742" lon="23.52264">
        <ele>575.888726</ele>
        <time>2022-03-09T10:40:08.437Z</time>
      </trkpt>
      <trkpt lat="42.67639" lon="23.52208">
        <ele>576.122907</ele>
        <time>2022-03-09T10:41:08.389Z</time>
      </trkpt>
      <trkpt lat="42.67869" lon="23.52156">
        <ele>575.202741</ele>
        <time>2022-03-09T10:42:11.400Z</time>
      </trkpt>
      <trkpt lat="42.68056" lon="23.52068">
        <ele>573.871309</ele>
        <time>2022-03-09T10:43:10.403Z</time>
      </trkpt>
      <trkpt lat="42.68157" lon="23.51779">
        <ele>571.278152</ele>
        <time>2022-03-09T10:44:07.415Z</time>
      </trkpt>
      <trkpt lat="42.68254" lon="23.5149">
        <ele>570.63826</ele>
        <time>2022-03-09T10:45:10.407Z</time>
      </trkpt>
      <trkpt lat="42.68348" lon="23.51228">
        <ele>572.979442</ele>
        <time>2022-03-09T10:46:10.417Z</time>
      </trkpt>
      <trkpt lat="42.68472" lon="23.5099">
        <ele>570.237222</ele>
        <time>2022-03-09T10:47:10.448Z</time>
      </trkpt>
      <trkpt lat="42.68617" lon="23.50761">
        <ele>570.2904</ele>
        <time>2022-03-09T10:48:21.404Z</time>
      </trkpt>
      <trkpt lat="42.68745" lon="23.5056">
        <ele>571.358811</ele>
        <time>2022-03-09T10:49:22.400Z</time>
      </trkpt>
      <trkpt lat="42.68879" lon="23.50337">
        <ele>570.657325</ele>
        <time>2022-03-09T10:50:25.420Z</time>
      </trkpt>
      <trkpt lat="42.69004" lon="23.50115">
        <ele>570.071803</ele>
        <time>2022-03-09T10:51:31.409Z</time>
      </trkpt>
      <trkpt lat="42.69085" lon="23.49875">
        <ele>569.510359</ele>
        <time>2022-03-09T10:52:31.411Z</time>
      </trkpt>
      <trkpt lat="42.69202" lon="23.49637">
        <ele>569.21427</ele>
        <time>2022-03-09T10:53:37.419Z</time>
      </trkpt>
      <trkpt lat="42.69315" lon="23.49405">
        <ele>569.074747</ele>
        <time>2022-03-09T10:54:40.392Z</time>
      </trkpt>
      <trkpt lat="42.69515" lon="23.49493">
        <ele>568.773662</ele>
        <time>2022-03-09T10:55:40.387Z</time>
      </trkpt>
      <trkpt lat="42.69707" lon="23.49577">
        <ele>569.343596</ele>
        <time>2022-03-09T10:56:38.396Z</time>
      </trkpt>
      <trkpt lat="42.69834" lon="23.49321">
        <ele>568.468227</ele>
        <time>2022-03-09T10:57:38.401Z</time>
      </trkpt>
      <trkpt lat="42.70021" lon="23.49243">
        <ele>566.889461</ele>
        <time>2022-03-09T10:58:40.421Z</time>
      </trkpt>
      <trkpt lat="42.7024" lon="23.49297">
        <ele>564.903881</ele>
        <time>2022-03-09T10:59:30.399Z</time>
      </trkpt>
      <trkpt lat="42.70464" lon="23.49235">
        <ele>566.228407</ele>
        <time>2022-03-09T11:00:27.408Z</time>
      </trkpt>
      <trkpt lat="42.70518" lon="23.48943">
        <ele>569.650987</ele>
        <time>2022-03-09T11:01:30.383Z</time>
      </trkpt>
      <trkpt lat="42.70559" lon="23.48677">
        <ele>568.609638</ele>
        <time>2022-03-09T11:02:54.394Z</time>
      </trkpt>
      <trkpt lat="42.70572" lon="23.48334">
        <ele>564.265103</ele>
        <time>2022-03-09T11:03:57.432Z</time>
      </trkpt>
      <trkpt lat="42.70592" lon="23.48007">
        <ele>553.364125</ele>
        <time>2022-03-09T11:04:57.440Z</time>
      </trkpt>
      <trkpt lat="42.7061" lon="23.47691">
        <ele>554.610715</ele>
        <time>2022-03-09T11:05:52.394Z</time>
      </trkpt>
      <trkpt lat="42.7063" lon="23.47358">
        <ele>555.841146</ele>
        <time>2022-03-09T11:06:48.408Z</time>
      </trkpt>
      <trkpt lat="42.70655" lon="23.47045">
        <ele>559.237997</ele>
        <time>2022-03-09T11:07:41.404Z</time>
      </trkpt>
      <trkpt lat="42.70809" lon="23.46825">
        <ele>565.144249</ele>
        <time>2022-03-09T11:08:42.414Z</time>
      </trkpt>
      <trkpt lat="42.70968" lon="23.46628">
        <ele>564.142235</ele>
        <time>2022-03-09T11:10:03.411Z</time>
      </trkpt>
      <trkpt lat="42.70942" lon="23.46331">
        <ele>554.545591</ele>
        <time>2022-03-09T11:10:46.429Z</time>
      </trkpt>
      <trkpt lat="42.7079" lon="23.46107">
        <ele>552.909625</ele>
        <time>2022-03-09T11:11:37.415Z</time>
      </trkpt>
      <trkpt lat="42.70763" lon="23.45816">
        <ele>570.199009</ele>
        <time>2022-03-09T11:12:38.409Z</time>
      </trkpt>
      <trkpt lat="42.70754" lon="23.45618">
        <ele>575.192144</ele>
        <time>2022-03-09T11:45:43.426Z</time>
      </trkpt>
      <trkpt lat="42.70775" lon="23.45265">
        <ele>565.494727</ele>
        <time>2022-03-09T11:46:46.425Z</time>
      </trkpt>
      <trkpt lat="42.70792" lon="23.44947">
        <ele>563.888597</ele>
        <time>2022-03-09T11:47:41.420Z</time>
      </trkpt>
      <trkpt lat="42.70818" lon="23.4466">
        <ele>564.634882</ele>
        <time>2022-03-09T11:48:23.412Z</time>
      </trkpt>
      <trkpt lat="42.70832" lon="23.44375">
        <ele>565.240414</ele>
        <time>2022-03-09T11:49:06.419Z</time>
      </trkpt>
      <trkpt lat="42.70849" lon="23.44077">
        <ele>565.808051</ele>
        <time>2022-03-09T11:49:55.416Z</time>
      </trkpt>
      <trkpt lat="42.70865" lon="23.4379">
        <ele>563.527446</ele>
        <time>2022-03-09T11:50:41.416Z</time>
      </trkpt>
      <trkpt lat="42.70889" lon="23.43474">
        <ele>565.652657</ele>
        <time>2022-03-09T11:51:34.432Z</time>
      </trkpt>
      <trkpt lat="42.70913" lon="23.43147">
        <ele>569.33125</ele>
        <time>2022-03-09T11:52:34.404Z</time>
      </trkpt>
      <trkpt lat="42.70774" lon="23.43297">
        <ele>566.120435</ele>
        <time>2022-03-09T11:54:14.397Z</time>
      </trkpt>
      <trkpt lat="42.70574" lon="23.43396">
        <ele>565.537517</ele>
        <time>2022-03-09T11:55:14.416Z</time>
      </trkpt>
      <trkpt lat="42.70424" lon="23.436">
        <ele>566.290204</ele>
        <time>2022-03-09T11:56:17.412Z</time>
      </trkpt>
      <trkpt lat="42.70275" lon="23.43855">
        <ele>568.697888</ele>
        <time>2022-03-09T11:57:17.451Z</time>
      </trkpt>
      <trkpt lat="42.70121" lon="23.44117">
        <ele>569.313622</ele>
        <time>2022-03-09T11:58:13.412Z</time>
      </trkpt>
      <trkpt lat="42.69903" lon="23.44288">
        <ele>571.926841</ele>
        <time>2022-03-09T11:59:15.425Z</time>
      </trkpt>
      <trkpt lat="42.69718" lon="23.44425">
        <ele>572.948602</ele>
        <time>2022-03-09T12:00:02.443Z</time>
      </trkpt>
      <trkpt lat="42.69496" lon="23.44589">
        <ele>571.974718</ele>
        <time>2022-03-09T12:01:01.425Z</time>
      </trkpt>
      <trkpt lat="42.69271" lon="23.4467">
        <ele>572.09586</ele>
        <time>2022-03-09T12:01:56.427Z</time>
      </trkpt>
      <trkpt lat="42.69081" lon="23.44862">
        <ele>570.865758</ele>
        <time>2022-03-09T12:02:56.397Z</time>
      </trkpt>
      <trkpt lat="42.68926" lon="23.45074">
        <ele>568.30133</ele>
        <time>2022-03-09T12:03:44.423Z</time>
      </trkpt>
      <trkpt lat="42.68742" lon="23.45195">
        <ele>573.29577</ele>
        <time>2022-03-09T12:04:45.468Z</time>
      </trkpt>
      <trkpt lat="42.68638" lon="23.45428">
        <ele>576.523252</ele>
        <time>2022-03-09T12:06:03.415Z</time>
      </trkpt>
      <trkpt lat="42.68445" lon="23.45719">
        <ele>570.366596</ele>
        <time>2022-03-09T12:06:45.425Z</time>
      </trkpt>
      <trkpt lat="42.68335" lon="23.45967">
        <ele>573.798492</ele>
        <time>2022-03-09T12:07:33.422Z</time>
      </trkpt>
      <trkpt lat="42.68254" lon="23.46225">
        <ele>572.323169</ele>
        <time>2022-03-09T12:08:18.413Z</time>
      </trkpt>
      <trkpt lat="42.68061" lon="23.46405">
        <ele>572.284929</ele>
        <time>2022-03-09T12:09:11.413Z</time>
      </trkpt>
      <trkpt lat="42.67847" lon="23.46475">
        <ele>578.001438</ele>
        <time>2022-03-09T12:10:07.419Z</time>
      </trkpt>
      <trkpt lat="42.67593" lon="23.46466">
        <ele>582.912768</ele>
        <time>2022-03-09T12:11:10.468Z</time>
      </trkpt>
      <trkpt lat="42.67377" lon="23.46565">
        <ele>580.748967</ele>
        <time>2022-03-09T12:12:11.429Z</time>
      </trkpt>
      <trkpt lat="42.67164" lon="23.46495">
        <ele>583.528794</ele>
        <time>2022-03-09T12:13:11.422Z</time>
      </trkpt>
      <trkpt lat="42.66929" lon="23.46416">
        <ele>586.620933</ele>
        <time>2022-03-09T12:14:14.419Z</time>
      </trkpt>
      <trkpt lat="42.66726" lon="23.46313">
        <ele>588.120506</ele>
        <time>2022-03-09T12:15:14.397Z</time>
      </trkpt>
      <trkpt lat="42.66515" lon="23.46195">
        <ele>591.907978</ele>
        <time>2022-03-09T12:16:17.410Z</time>
      </trkpt>
      <trkpt lat="42.66489" lon="23.45994">
        <ele>597.031524</ele>
        <time>2022-03-09T12:17:17.405Z</time>
      </trkpt>
      <trkpt lat="42.66509" lon="23.45722">
        <ele>604.512232</ele>
        <time>2022-03-09T12:18:47.440Z</time>
      </trkpt>
      <trkpt lat="42.66487" lon="23.45373">
        <ele>601.062126</ele>
        <time>2022-03-09T12:19:42.436Z</time>
      </trkpt>
      <trkpt lat="42.66569" lon="23.45109">
        <ele>590.93958</ele>
        <time>2022-03-09T12:20:34.424Z</time>
      </trkpt>
      <trkpt lat="42.66718" lon="23.44875">
        <ele>579.037198</ele>
        <time>2022-03-09T12:21:29.499Z</time>
      </trkpt>
      <trkpt lat="42.66849" lon="23.44627">
        <ele>585.761538</ele>
        <time>2022-03-09T12:22:20.407Z</time>
      </trkpt>
      <trkpt lat="42.66976" lon="23.44388">
        <ele>587.467321</ele>
        <time>2022-03-09T12:23:08.401Z</time>
      </trkpt>
      <trkpt lat="42.67125" lon="23.44105">
        <ele>583.132818</ele>
        <time>2022-03-09T12:24:08.415Z</time>
      </trkpt>
      <trkpt lat="42.67247" lon="23.43872">
        <ele>592.171394</ele>
        <time>2022-03-09T12:25:02.413Z</time>
      </trkpt>
      <trkpt lat="42.67381" lon="23.43618">
        <ele>596.837997</ele>
        <time>2022-03-09T12:25:58.412Z</time>
      </trkpt>
      <trkpt lat="42.67538" lon="23.43385">
        <ele>603.865152</ele>
        <time>2022-03-09T12:26:59.393Z</time>
      </trkpt>
      <trkpt lat="42.67492" lon="23.43173">
        <ele>595.570891</ele>
        <time>2022-03-09T12:27:59.424Z</time>
      </trkpt>
      <trkpt lat="42.67321" lon="23.42976">
        <ele>590.553816</ele>
        <time>2022-03-09T12:28:50.424Z</time>
      </trkpt>
      <trkpt lat="42.6713" lon="23.42771">
        <ele>588.421596</ele>
        <time>2022-03-09T12:29:53.422Z</time>
      </trkpt>
      <trkpt lat="42.66946" lon="23.42588">
        <ele>589.200402</ele>
        <time>2022-03-09T12:30:53.402Z</time>
      </trkpt>
      <trkpt lat="42.66763" lon="23.42401">
        <ele>586.829326</ele>
        <time>2022-03-09T12:31:56.413Z</time>
      </trkpt>
      <trkpt lat="42.66563" lon="23.42237">
        <ele>596.080188</ele>
        <time>2022-03-09T12:32:56.408Z</time>
      </trkpt>
      <trkpt lat="42.66503" lon="23.41972">
        <ele>603.090818</ele>
        <time>2022-03-09T12:33:53.411Z</time>
      </trkpt>
      <trkpt lat="42.66269" lon="23.41969">
        <ele>589.293088</ele>
        <time>2022-03-09T12:34:41.416Z</time>
      </trkpt>
      <trkpt lat="42.66241" lon="23.41748">
        <ele>611.832067</ele>
        <time>2022-03-09T12:35:44.430Z</time>
      </trkpt>
      <trkpt lat="42.66307" lon="23.41462">
        <ele>612.796012</ele>
        <time>2022-03-09T12:36:47.453Z</time>
      </trkpt>
      <trkpt lat="42.66389" lon="23.4116">
        <ele>601.862279</ele>
        <time>2022-03-09T12:37:51.429Z</time>
      </trkpt>
      <trkpt lat="42.66481" lon="23.40872">
        <ele>597.687928</ele>
        <time>2022-03-09T12:38:48.417Z</time>
      </trkpt>
      <trkpt lat="42.66615" lon="23.40605">
        <ele>595.149155</ele>
        <time>2022-03-09T12:39:53.428Z</time>
      </trkpt>
      <trkpt lat="42.66749" lon="23.40336">
        <ele>595.071273</ele>
        <time>2022-03-09T12:40:49.436Z</time>
      </trkpt>
      <trkpt lat="42.66873" lon="23.40098">
        <ele>597.963846</ele>
        <time>2022-03-09T12:41:53.463Z</time>
      </trkpt>
      <trkpt lat="42.67007" lon="23.39836">
        <ele>601.084279</ele>
        <time>2022-03-09T12:42:48.429Z</time>
      </trkpt>
      <trkpt lat="42.67131" lon="23.39574">
        <ele>587.90438</ele>
        <time>2022-03-09T12:43:45.433Z</time>
      </trkpt>
      <trkpt lat="42.67201" lon="23.39266">
        <ele>589.367891</ele>
        <time>2022-03-09T12:44:41.437Z</time>
      </trkpt>
      <trkpt lat="42.67258" lon="23.38949">
        <ele>597.741448</ele>
        <time>2022-03-09T12:45:41.439Z</time>
      </trkpt>
      <trkpt lat="42.67311" lon="23.38659">
        <ele>596.835691</ele>
        <time>2022-03-09T12:46:39.445Z</time>
      </trkpt>
      <trkpt lat="42.67367" lon="23.38343">
        <ele>590.981532</ele>
        <time>2022-03-09T12:47:45.445Z</time>
      </trkpt>
      <trkpt lat="42.67489" lon="23.38188">
        <ele>587.006751</ele>
        <time>2022-03-09T12:49:26.429Z</time>
      </trkpt>
      <trkpt lat="42.6761" lon="23.38047">
        <ele>591.281204</ele>
        <time>2022-03-09T12:50:26.443Z</time>
      </trkpt>
      <trkpt lat="42.67809" lon="23.3788">
        <ele>585.459581</ele>
        <time>2022-03-09T12:51:28.448Z</time>
      </trkpt>
      <trkpt lat="42.67995" lon="23.37828">
        <ele>589.067848</ele>
        <time>2022-03-09T12:52:20.463Z</time>
      </trkpt>
      <trkpt lat="42.68039" lon="23.37514">
        <ele>595.791485</ele>
        <time>2022-03-09T12:53:19.433Z</time>
      </trkpt>
      <trkpt lat="42.68069" lon="23.37212">
        <ele>601.870761</ele>
        <time>2022-03-09T12:54:41.444Z</time>
      </trkpt>
      <trkpt lat="42.68163" lon="23.3697">
        <ele>608.126251</ele>
        <time>2022-03-09T12:56:04.429Z</time>
      </trkpt>
      <trkpt lat="42.68248" lon="23.36722">
        <ele>621.417683</ele>
        <time>2022-03-09T12:57:57.453Z</time>
      </trkpt>
      <trkpt lat="42.68284" lon="23.36451">
        <ele>630.007834</ele>
        <time>2022-03-09T12:59:00.464Z</time>
      </trkpt>
      <trkpt lat="42.68348" lon="23.36189">
        <ele>624.357928</ele>
        <time>2022-03-09T13:00:12.468Z</time>
      </trkpt>
      <trkpt lat="42.68441" lon="23.35915">
        <ele>631.204649</ele>
        <time>2022-03-09T13:01:18.429Z</time>
      </trkpt>
      <trkpt lat="42.68522" lon="23.35646">
        <ele>633.321163</ele>
        <time>2022-03-09T13:02:22.449Z</time>
      </trkpt>
      <trkpt lat="42.68628" lon="23.3539">
        <ele>628.780277</ele>
        <time>2022-03-09T13:03:09.447Z</time>
      </trkpt>
      <trkpt lat="42.68646" lon="23.35129">
        <ele>606.714458</ele>
        <time>2022-03-09T13:05:19.484Z</time>
      </trkpt>
      <trkpt lat="42.68653" lon="23.34894">
        <ele>602.94548</ele>
        <time>2022-03-09T13:06:09.422Z</time>
      </trkpt>
      <trkpt lat="42.68789" lon="23.3468">
        <ele>605.14649</ele>
        <time>2022-03-09T13:07:31.441Z</time>
      </trkpt>
      <trkpt lat="42.68925" lon="23.34671">
        <ele>611.717757</ele>
        <time>2022-03-09T13:09:05.418Z</time>
      </trkpt>
      <trkpt lat="42.68948" lon="23.34475">
        <ele>603.405559</ele>
        <time>2022-03-09T13:10:29.432Z</time>
      </trkpt>
      <trkpt lat="42.68971" lon="23.34241">
        <ele>603.369249</ele>
        <time>2022-03-09T13:11:58.436Z</time>
      </trkpt>
      <trkpt lat="42.6903" lon="23.33979">
        <ele>612.49866</ele>
        <time>2022-03-09T13:13:28.424Z</time>
      </trkpt>
      <trkpt lat="42.69065" lon="23.33695">
        <ele>587.123195</ele>
        <time>2022-03-09T13:15:13.435Z</time>
      </trkpt>
      <trkpt lat="42.68924" lon="23.33473">
        <ele>585.537062</ele>
        <time>2022-03-09T13:16:21.427Z</time>
      </trkpt>
      <trkpt lat="42.68946" lon="23.33256">
        <ele>587.678676</ele>
        <time>2022-03-09T13:17:21.449Z</time>
      </trkpt>
      <trkpt lat="42.69069" lon="23.33018">
        <ele>593.922556</ele>
        <time>2022-03-09T13:18:46.444Z</time>
      </trkpt>
      <trkpt lat="42.69142" lon="23.32978">
        <ele>593.922556</ele>
        <time>2022-03-09T13:19:56.965Z</time>
      </trkpt>
    </trkseg>
  </trk>
</gpx>